Time;durP1;ratioP1;P1;durP2;ratioP2;P2;SDS_P1;SDS_P2;PMS_P1;PMS_P2;Temp;Humidity;BMP_temperature;BMP_pressure;BME280_temperature;BME280_humidity;BME280_pressure;Samples;Min_cycle;Max_cycle;Signal;HPM_P1;HPM_P2
2023/06/03 00:01:58;;;;;;;2.28;0.70;;;;;;;;;;5031921;28;20442;-80
2023/06/03 00:04:23;;;;;;;1.50;0.80;;;;;;;;;;5030642;28;20539;-79
2023/06/03 00:06:48;;;;;;;3.90;0.88;;;;;;;;;;5021763;28;20034;-80
2023/06/03 00:09:14;;;;;;;4.15;0.88;;;;;;;;;;5028371;28;20121;-80
2023/06/03 00:11:39;;;;;;;3.58;1.02;;;;;;;;;;5013983;28;20037;-80
2023/06/03 00:14:05;;;;;;;3.97;0.70;;;;;;;;;;5029561;28;20478;-79
2023/06/03 00:16:32;;;;;;;1.95;0.47;;;;;;;;;;5027366;28;20029;-79
2023/06/03 00:18:57;;;;;;;3.90;0.80;;;;;;;;;;5024979;28;20033;-80
2023/06/03 00:21:23;;;;;;;1.35;0.60;;;;;;;;;;5031358;28;20036;-79
2023/06/03 00:23:49;;;;;;;2.70;0.85;;;;;;;;;;5027610;28;20037;-79
2023/06/03 00:26:14;;;;;;;3.03;0.60;;;;;;;;;;5028744;28;20033;-80
2023/06/03 00:28:40;;;;;;;1.95;0.73;;;;;;;;;;5010914;28;20088;-79
2023/06/03 00:31:05;;;;;;;2.88;0.70;;;;;;;;;;5028908;28;20049;-79
2023/06/03 00:33:31;;;;;;;2.58;0.77;;;;;;;;;;5030243;28;20073;-80
2023/06/03 00:35:56;;;;;;;1.40;0.60;;;;;;;;;;5026888;28;20037;-80
2023/06/03 00:38:21;;;;;;;2.03;0.60;;;;;;;;;;5028121;28;20444;-80
2023/06/03 00:40:47;;;;;;;5.18;0.82;;;;;;;;;;5030000;28;20048;-79
2023/06/03 00:43:13;;;;;;;4.60;1.05;;;;;;;;;;5034451;28;20022;-79
2023/06/03 00:45:38;;;;;;;3.30;0.68;;;;;;;;;;5036804;28;20037;-79
2023/06/03 00:48:03;;;;;;;3.10;0.80;;;;;;;;;;5030531;28;20113;-78
2023/06/03 00:50:29;;;;;;;1.55;0.60;;;;;;;;;;5013726;28;20033;-79
2023/06/03 00:52:54;;;;;;;2.35;0.50;;;;;;;;;;5031694;28;20045;-79
2023/06/03 00:55:19;;;;;;;2.80;0.70;;;;;;;;;;5018885;28;20086;-80
2023/06/03 00:57:45;;;;;;;2.00;0.70;;;;;;;;;;5026257;28;20032;-80
2023/06/03 01:00:10;;;;;;;1.88;1.00;;;;;;;;;;5031190;28;20504;-79
2023/06/03 01:02:36;;;;;;;1.85;0.60;;;;;;;;;;5030705;28;20458;-79
2023/06/03 01:05:03;;;;;;;1.95;0.75;;;;;;;;;;5036950;28;20032;-79
2023/06/03 01:07:41;;;;;;;2.85;0.90;;;;;;;;;;5028830;28;20509;-79
2023/06/03 01:10:19;;;;;;;2.13;0.70;;;;;;;;;;5035641;28;20033;-79
2023/06/03 01:13:00;;;;;;;2.53;0.60;;;;;;;;;;5034215;28;20029;-79
2023/06/03 01:15:26;;;;;;;1.55;0.75;;;;;;;;;;5051425;28;20113;-79
2023/06/03 01:17:57;;;;;;;1.75;0.60;;;;;;;;;;5030643;28;20045;-79
2023/06/03 01:20:26;;;;;;;4.45;0.77;;;;;;;;;;5031768;28;20261;-79
2023/06/03 01:22:56;;;;;;;3.17;0.70;;;;;;;;;;5033157;28;20048;-78
2023/06/03 01:25:21;;;;;;;2.80;0.65;;;;;;;;;;5065271;28;20112;-79
2023/06/03 01:27:48;;;;;;;5.78;0.82;;;;;;;;;;5038907;28;20437;-79
2023/06/03 01:30:15;;;;;;;3.03;0.60;;;;;;;;;;5026549;28;20591;-79
2023/06/03 01:32:40;;;;;;;5.80;0.80;;;;;;;;;;5031307;28;20030;-79
2023/06/03 01:35:09;;;;;;;3.83;1.13;;;;;;;;;;5037181;28;20048;-79
2023/06/03 01:37:34;;;;;;;2.35;0.80;;;;;;;;;;5031694;28;20466;-79
2023/06/03 01:40:00;;;;;;;3.13;0.77;;;;;;;;;;5026834;28;20064;-79
2023/06/03 01:42:28;;;;;;;2.60;0.70;;;;;;;;;;5030724;28;20025;-79
2023/06/03 01:44:53;;;;;;;2.17;0.80;;;;;;;;;;5031527;28;20040;-78
2023/06/03 01:47:19;;;;;;;2.58;0.80;;;;;;;;;;5026164;28;20040;-79
2023/06/03 01:49:45;;;;;;;3.20;0.90;;;;;;;;;;5030096;28;20022;-79
2023/06/03 01:52:11;;;;;;;2.35;0.70;;;;;;;;;;5033980;28;20072;-78
2023/06/03 01:54:36;;;;;;;2.88;0.80;;;;;;;;;;5030148;28;20095;-79
2023/06/03 01:57:01;;;;;;;3.38;1.05;;;;;;;;;;5032040;28;20057;-79
2023/06/03 01:59:27;;;;;;;3.20;0.80;;;;;;;;;;5026017;28;20062;-79
2023/06/03 02:01:52;;;;;;;3.17;0.80;;;;;;;;;;5033682;28;20102;-79
2023/06/03 02:04:18;;;;;;;4.55;0.77;;;;;;;;;;5032746;28;20447;-79
2023/06/03 02:07:02;;;;;;;2.20;0.98;;;;;;;;;;5026436;28;20040;-78
2023/06/03 02:09:29;;;;;;;3.08;0.90;;;;;;;;;;5026179;28;20029;-79
2023/06/03 02:11:59;;;;;;;2.65;1.08;;;;;;;;;;5033664;28;20036;-79
2023/06/03 02:14:26;;;;;;;3.15;0.80;;;;;;;;;;5030850;28;20019;-79
2023/06/03 02:16:52;;;;;;;4.63;0.80;;;;;;;;;;5024788;28;20037;-79
2023/06/03 02:19:19;;;;;;;2.83;0.77;;;;;;;;;;5029438;28;20040;-79
2023/06/03 02:21:44;;;;;;;2.30;0.80;;;;;;;;;;5028820;28;20025;-79
2023/06/03 02:24:10;;;;;;;3.22;0.70;;;;;;;;;;5034763;28;20064;-79
2023/06/03 02:26:35;;;;;;;3.33;0.82;;;;;;;;;;5034009;28;20120;-79
2023/06/03 02:29:01;;;;;;;4.43;1.05;;;;;;;;;;5014454;28;20204;-78
2023/06/03 02:31:27;;;;;;;2.80;0.70;;;;;;;;;;5032055;28;20042;-79
2023/06/03 02:33:52;;;;;;;1.95;0.70;;;;;;;;;;5034092;28;20025;-79
2023/06/03 02:36:18;;;;;;;2.67;0.85;;;;;;;;;;5033131;28;20527;-79
2023/06/03 02:38:44;;;;;;;2.58;0.80;;;;;;;;;;5032500;28;20108;-78
2023/06/03 02:41:09;;;;;;;3.67;0.80;;;;;;;;;;5033197;28;20168;-79
2023/06/03 02:43:35;;;;;;;4.57;1.08;;;;;;;;;;5033449;28;20551;-79
2023/06/03 02:46:01;;;;;;;2.42;0.90;;;;;;;;;;5032130;28;20025;-78
2023/06/03 02:48:26;;;;;;;4.43;1.00;;;;;;;;;;5017511;28;20029;-79
2023/06/03 02:50:52;;;;;;;2.67;0.90;;;;;;;;;;5032637;28;20034;-78
2023/06/03 02:53:17;;;;;;;2.83;0.90;;;;;;;;;;5009089;28;20404;-78
2023/06/03 02:55:44;;;;;;;2.50;0.80;;;;;;;;;;5031611;28;20447;-79
2023/06/03 02:58:12;;;;;;;2.20;0.77;;;;;;;;;;5048446;28;20040;-79
2023/06/03 03:00:37;;;;;;;3.35;0.85;;;;;;;;;;5030302;28;20048;-79
2023/06/03 03:03:03;;;;;;;3.65;0.80;;;;;;;;;;5032312;28;20100;-78
2023/06/03 03:05:30;;;;;;;1.95;0.70;;;;;;;;;;5030361;28;20048;-79
2023/06/03 03:07:55;;;;;;;1.80;0.60;;;;;;;;;;5015898;28;20029;-79
2023/06/03 03:10:21;;;;;;;1.98;0.75;;;;;;;;;;5032051;28;20036;-79
2023/06/03 03:12:46;;;;;;;4.03;1.00;;;;;;;;;;5030823;28;20500;-79
2023/06/03 03:15:11;;;;;;;2.55;1.00;;;;;;;;;;5031321;28;20396;-78
2023/06/03 03:17:37;;;;;;;4.90;1.05;;;;;;;;;;5032215;28;20025;-79
2023/06/03 03:20:03;;;;;;;2.95;0.90;;;;;;;;;;5032397;28;20041;-78
2023/06/03 03:22:30;;;;;;;3.20;1.02;;;;;;;;;;5029124;28;20037;-78
2023/06/03 03:24:57;;;;;;;2.45;0.82;;;;;;;;;;5028554;28;20026;-78
2023/06/03 03:27:23;;;;;;;2.00;1.02;;;;;;;;;;5012617;28;20029;-78
2023/06/03 03:29:50;;;;;;;3.88;0.93;;;;;;;;;;5032179;28;20028;-78
2023/06/03 03:32:17;;;;;;;3.30;0.85;;;;;;;;;;5031975;28;20035;-79
2023/06/03 03:34:49;;;;;;;3.05;1.08;;;;;;;;;;5016230;28;20568;-79
2023/06/03 03:37:14;;;;;;;2.28;0.90;;;;;;;;;;5032041;28;20029;-78
2023/06/03 03:39:43;;;;;;;3.85;0.90;;;;;;;;;;5032199;28;20025;-79
2023/06/03 03:42:09;;;;;;;3.58;1.10;;;;;;;;;;5032984;28;20111;-79
2023/06/03 03:44:35;;;;;;;2.83;0.85;;;;;;;;;;5017656;28;20029;-78
2023/06/03 03:47:01;;;;;;;3.72;0.98;;;;;;;;;;5029461;28;20072;-78
2023/06/03 03:49:28;;;;;;;2.70;0.90;;;;;;;;;;5032142;28;20407;-79
2023/06/03 03:51:54;;;;;;;2.75;0.77;;;;;;;;;;5032065;28;20022;-78
2023/06/03 03:54:23;;;;;;;3.40;1.25;;;;;;;;;;5028909;28;20041;-78
2023/06/03 03:56:55;;;;;;;2.80;1.15;;;;;;;;;;5032604;28;20111;-79
2023/06/03 03:59:22;;;;;;;3.10;1.00;;;;;;;;;;5035545;28;20028;-79
2023/06/03 04:01:47;;;;;;;3.17;1.10;;;;;;;;;;5036652;28;20492;-79
2023/06/03 04:04:35;;;;;;;3.63;1.02;;;;;;;;;;5038135;28;20045;-79
2023/06/03 04:07:01;;;;;;;1.77;0.70;;;;;;;;;;5035573;28;20060;-79
2023/06/03 04:09:26;;;;;;;5.25;1.45;;;;;;;;;;5032178;28;20485;-79
2023/06/03 04:11:51;;;;;;;2.72;1.20;;;;;;;;;;5036991;28;20439;-79
2023/06/03 04:14:25;;;;;;;4.95;1.20;;;;;;;;;;5036235;28;20116;-78
2023/06/03 04:17:02;;;;;;;5.60;1.00;;;;;;;;;;5037149;28;20554;-79
2023/06/03 04:19:41;;;;;;;3.25;1.02;;;;;;;;;;5034535;28;20025;-78
2023/06/03 04:22:17;;;;;;;3.25;1.15;;;;;;;;;;5030351;28;20068;-78
2023/06/03 04:24:42;;;;;;;3.78;1.40;;;;;;;;;;5036191;28;20057;-79
2023/06/03 04:27:08;;;;;;;4.40;1.08;;;;;;;;;;5037024;28;20025;-78
2023/06/03 04:29:33;;;;;;;4.60;1.20;;;;;;;;;;5018904;28;20030;-78
2023/06/03 04:31:59;;;;;;;2.55;0.80;;;;;;;;;;5035622;28;20029;-78
2023/06/03 04:34:26;;;;;;;2.75;1.10;;;;;;;;;;5048916;28;20022;-78
2023/06/03 04:36:51;;;;;;;3.33;1.00;;;;;;;;;;5034252;28;20037;-79
2023/06/03 04:39:17;;;;;;;2.40;0.95;;;;;;;;;;5017966;28;20034;-77
2023/06/03 04:41:43;;;;;;;2.45;1.30;;;;;;;;;;5034834;28;20519;-78
2023/06/03 04:44:11;;;;;;;3.10;1.10;;;;;;;;;;5035138;28;20522;-78
2023/06/03 04:46:36;;;;;;;2.60;0.98;;;;;;;;;;5034618;28;20040;-77
2023/06/03 04:49:01;;;;;;;4.60;1.23;;;;;;;;;;5018081;28;20021;-78
2023/06/03 04:51:29;;;;;;;2.83;0.80;;;;;;;;;;5034256;28;20021;-79
2023/06/03 04:53:56;;;;;;;3.72;1.30;;;;;;;;;;5034890;28;20025;-79
2023/06/03 04:56:24;;;;;;;3.03;1.10;;;;;;;;;;5033614;28;20030;-79
2023/06/03 04:58:54;;;;;;;3.88;1.00;;;;;;;;;;5027223;28;20025;-79
2023/06/03 05:01:23;;;;;;;3.22;1.20;;;;;;;;;;5014019;28;20096;-79
2023/06/03 05:03:49;;;;;;;4.18;1.30;;;;;;;;;;5010616;28;20037;-79
2023/06/03 05:06:14;;;;;;;5.75;1.02;;;;;;;;;;5032423;28;20034;-78
2023/06/03 05:08:41;;;;;;;3.72;1.20;;;;;;;;;;5035169;28;20014;-78
2023/06/03 05:11:07;;;;;;;5.05;1.45;;;;;;;;;;5034969;28;20026;-78
2023/06/03 05:13:34;;;;;;;3.45;1.17;;;;;;;;;;5034018;28;20033;-79
2023/06/03 05:16:00;;;;;;;3.80;1.30;;;;;;;;;;5033164;28;20499;-79
2023/06/03 05:18:27;;;;;;;3.15;1.02;;;;;;;;;;5017232;28;20041;-79
2023/06/03 05:20:52;;;;;;;5.15;1.42;;;;;;;;;;5018162;28;20487;-79
2023/06/03 05:23:17;;;;;;;3.97;1.38;;;;;;;;;;5033344;28;20022;-79
2023/06/03 05:25:42;;;;;;;4.15;1.45;;;;;;;;;;5036128;28;20113;-79
2023/06/03 05:28:08;;;;;;;3.08;1.33;;;;;;;;;;5032868;28;20025;-79
2023/06/03 05:30:35;;;;;;;4.38;1.63;;;;;;;;;;5034152;28;20033;-79
2023/06/03 05:33:02;;;;;;;4.07;1.48;;;;;;;;;;5034160;28;20021;-79
2023/06/03 05:35:28;;;;;;;4.40;1.40;;;;;;;;;;5018204;28;20547;-79
2023/06/03 05:37:53;;;;;;;6.30;1.45;;;;;;;;;;5014357;28;20033;-79
2023/06/03 05:40:19;;;;;;;4.35;1.30;;;;;;;;;;5034549;28;20029;-79
2023/06/03 05:42:47;;;;;;;5.25;1.80;;;;;;;;;;5034764;28;20026;-78
2023/06/03 05:45:13;;;;;;;7.93;1.52;;;;;;;;;;5034275;28;20041;-79
2023/06/03 05:47:39;;;;;;;4.53;1.33;;;;;;;;;;5034599;28;20021;-80
2023/06/03 05:50:05;;;;;;;4.97;1.50;;;;;;;;;;5030440;28;20024;-79
2023/06/03 05:52:31;;;;;;;4.63;1.30;;;;;;;;;;5034098;28;20033;-79
2023/06/03 05:54:56;;;;;;;4.82;1.40;;;;;;;;;;5028833;28;20030;-79
2023/06/03 05:57:22;;;;;;;3.70;1.10;;;;;;;;;;5017006;28;20108;-79
2023/06/03 05:59:50;;;;;;;3.63;1.00;;;;;;;;;;5033544;28;20075;-78
2023/06/03 06:02:17;;;;;;;6.38;1.58;;;;;;;;;;5017964;28;20033;-78
2023/06/03 06:04:42;;;;;;;3.35;1.20;;;;;;;;;;5018367;28;20029;-79
2023/06/03 06:07:07;;;;;;;4.45;1.35;;;;;;;;;;5033212;28;20041;-79
2023/06/03 06:09:33;;;;;;;4.72;1.42;;;;;;;;;;5029357;28;20021;-79
2023/06/03 06:11:58;;;;;;;5.30;1.38;;;;;;;;;;5033253;28;20017;-79
2023/06/03 06:14:24;;;;;;;4.50;1.60;;;;;;;;;;5033929;28;20120;-80
2023/06/03 06:16:51;;;;;;;6.97;1.45;;;;;;;;;;5017098;28;20048;-80
2023/06/03 06:19:16;;;;;;;4.60;1.33;;;;;;;;;;5016948;28;20037;-80
2023/06/03 06:21:42;;;;;;;7.18;1.58;;;;;;;;;;5013318;28;20039;-79
2023/06/03 06:24:07;;;;;;;8.05;1.50;;;;;;;;;;5032895;28;20381;-80
2023/06/03 06:26:33;;;;;;;4.10;1.42;;;;;;;;;;5032903;28;20036;-80
2023/06/03 06:29:00;;;;;;;5.00;1.38;;;;;;;;;;5033211;28;20108;-80
2023/06/03 06:31:25;;;;;;;3.60;1.45;;;;;;;;;;5032730;28;20025;-80
2023/06/03 06:33:53;;;;;;;4.57;1.30;;;;;;;;;;5032803;28;20577;-80
2023/06/03 06:36:28;;;;;;;3.92;1.20;;;;;;;;;;5036568;28;20037;-80
2023/06/03 06:38:54;;;;;;;5.32;1.38;;;;;;;;;;5032776;28;20076;-80
2023/06/03 06:41:21;;;;;;;4.90;1.35;;;;;;;;;;5032608;28;20037;-80
2023/06/03 06:43:46;;;;;;;4.40;1.52;;;;;;;;;;5015384;28;20407;-80
2023/06/03 06:46:12;;;;;;;3.83;1.23;;;;;;;;;;5033904;28;20266;-80
2023/06/03 06:48:37;;;;;;;8.52;1.40;;;;;;;;;;5034018;28;20053;-80
2023/06/03 06:51:04;;;;;;;6.00;1.70;;;;;;;;;;5032621;28;20108;-80
2023/06/03 06:53:33;;;;;;;6.13;1.80;;;;;;;;;;5032539;28;20021;-80
2023/06/03 06:56:03;;;;;;;4.28;1.00;;;;;;;;;;5037463;28;20018;-80
2023/06/03 06:58:34;;;;;;;4.78;1.45;;;;;;;;;;5030925;28;20079;-79
2023/06/03 07:01:00;;;;;;;3.78;1.40;;;;;;;;;;5027690;28;20030;-80
2023/06/03 07:03:26;;;;;;;2.83;1.10;;;;;;;;;;5032071;28;20534;-79
2023/06/03 07:05:53;;;;;;;6.88;1.25;;;;;;;;;;5032568;28;20025;-79
2023/06/03 07:08:21;;;;;;;3.25;1.20;;;;;;;;;;5032399;28;20033;-80
2023/06/03 07:10:46;;;;;;;4.18;1.10;;;;;;;;;;5032102;28;20025;-80
2023/06/03 07:13:13;;;;;;;3.17;1.20;;;;;;;;;;5017143;28;20116;-80
2023/06/03 07:15:39;;;;;;;3.05;1.15;;;;;;;;;;5033254;28;20078;-80
2023/06/03 07:18:05;;;;;;;4.85;1.05;;;;;;;;;;5034019;28;20117;-80
2023/06/03 07:20:32;;;;;;;4.85;1.38;;;;;;;;;;5013944;28;20053;-80
2023/06/03 07:22:58;;;;;;;3.60;1.40;;;;;;;;;;5033073;28;20026;-80
2023/06/03 07:25:43;;;;;;;3.30;0.88;;;;;;;;;;5019843;28;20121;-80
2023/06/03 07:28:11;;;;;;;4.53;1.08;;;;;;;;;;5024640;28;20036;-80
2023/06/03 07:30:37;;;;;;;4.15;1.08;;;;;;;;;;5028682;28;20517;-79
2023/06/03 07:33:04;;;;;;;2.60;0.93;;;;;;;;;;5011950;28;20022;-79
2023/06/03 07:35:30;;;;;;;3.25;1.23;;;;;;;;;;5030853;28;20025;-79
2023/06/03 07:37:55;;;;;;;3.50;0.88;;;;;;;;;;5031336;28;20033;-79
2023/06/03 07:40:24;;;;;;;2.95;1.00;;;;;;;;;;5030819;28;20029;-79
2023/06/03 07:42:50;;;;;;;2.08;0.80;;;;;;;;;;5031669;28;20032;-78
2023/06/03 07:45:15;;;;;;;7.15;1.55;;;;;;;;;;5006967;28;20033;-78
2023/06/03 07:47:40;;;;;;;3.67;0.80;;;;;;;;;;5031075;28;20037;-78
2023/06/03 07:50:32;;;;;;;2.25;0.80;;;;;;;;;;5038221;28;20112;-78
2023/06/03 07:53:01;;;;;;;5.00;0.90;;;;;;;;;;5036843;28;20140;-78
2023/06/03 07:55:43;;;;;;;2.05;0.80;;;;;;;;;;5035980;28;20484;-78
2023/06/03 07:58:09;;;;;;;2.83;0.55;;;;;;;;;;5034155;28;20083;-78
2023/06/03 08:00:34;;;;;;;1.75;0.70;;;;;;;;;;5035445;28;20041;-78
2023/06/03 08:02:59;;;;;;;5.05;1.02;;;;;;;;;;5038400;28;20029;-78
2023/06/03 08:05:30;;;;;;;4.10;0.80;;;;;;;;;;5042507;28;20029;-79
2023/06/03 08:07:55;;;;;;;3.83;0.88;;;;;;;;;;5037061;28;20419;-78
2023/06/03 08:10:23;;;;;;;2.83;0.80;;;;;;;;;;5032909;28;20029;-79
2023/06/03 08:12:48;;;;;;;2.83;0.63;;;;;;;;;;5037346;28;20033;-79
2023/06/03 08:15:21;;;;;;;2.60;0.70;;;;;;;;;;5035803;28;20021;-78
2023/06/03 08:17:46;;;;;;;2.85;0.70;;;;;;;;;;5037182;28;20033;-79
2023/06/03 08:20:12;;;;;;;2.75;0.63;;;;;;;;;;5038217;28;20022;-79
2023/06/03 08:22:41;;;;;;;2.65;0.50;;;;;;;;;;5038588;28;20022;-79
2023/06/03 08:25:06;;;;;;;2.92;0.88;;;;;;;;;;5036022;28;20504;-78
2023/06/03 08:27:32;;;;;;;4.38;0.90;;;;;;;;;;5020220;28;20030;-78
2023/06/03 08:29:57;;;;;;;5.25;0.90;;;;;;;;;;5037871;28;20037;-79
2023/06/03 08:32:22;;;;;;;2.42;0.75;;;;;;;;;;5017859;28;20080;-79
2023/06/03 08:34:48;;;;;;;6.07;0.70;;;;;;;;;;5038172;28;20025;-78
2023/06/03 08:37:13;;;;;;;3.88;0.80;;;;;;;;;;5038146;28;20391;-79
2023/06/03 08:39:39;;;;;;;6.13;0.98;;;;;;;;;;5037890;28;20036;-79
2023/06/03 08:42:09;;;;;;;2.50;0.60;;;;;;;;;;5037085;28;20026;-79
2023/06/03 08:44:45;;;;;;;3.08;0.73;;;;;;;;;;5033198;28;20660;-78
2023/06/03 08:47:17;;;;;;;3.20;1.05;;;;;;;;;;5038284;28;20037;-79
2023/06/03 08:49:53;;;;;;;4.88;0.77;;;;;;;;;;5038190;28;20017;-78
2023/06/03 08:52:19;;;;;;;1.15;0.60;;;;;;;;;;5035091;28;20075;-79
2023/06/03 08:54:45;;;;;;;3.28;0.93;;;;;;;;;;5036920;28;20400;-79
2023/06/03 08:57:18;;;;;;;2.33;0.90;;;;;;;;;;5035285;28;20033;-79
2023/06/03 08:59:44;;;;;;;2.58;0.70;;;;;;;;;;5034686;28;20025;-79
2023/06/03 09:02:12;;;;;;;2.63;0.93;;;;;;;;;;5033859;28;20036;-79
2023/06/03 09:04:38;;;;;;;1.45;0.60;;;;;;;;;;5034960;28;20033;-79
2023/06/03 09:07:04;;;;;;;3.72;0.88;;;;;;;;;;5029615;28;20029;-79
2023/06/03 09:09:30;;;;;;;4.10;0.60;;;;;;;;;;5034586;28;20034;-79
2023/06/03 09:11:55;;;;;;;2.80;0.70;;;;;;;;;;5031311;28;20076;-79
2023/06/03 09:14:21;;;;;;;3.67;0.63;;;;;;;;;;5034553;28;20026;-79
2023/06/03 09:16:47;;;;;;;3.58;0.70;;;;;;;;;;5034898;28;20022;-79
2023/06/03 09:19:12;;;;;;;3.13;1.30;;;;;;;;;;5034730;28;20108;-79
2023/06/03 09:21:41;;;;;;;2.35;0.70;;;;;;;;;;5033362;28;20026;-79
2023/06/03 09:24:07;;;;;;;2.92;0.88;;;;;;;;;;5035887;28;20025;-79
2023/06/03 09:26:32;;;;;;;2.58;0.77;;;;;;;;;;5035611;28;20542;-79
2023/06/03 09:28:58;;;;;;;2.60;0.77;;;;;;;;;;5032602;28;20021;-79
2023/06/03 09:31:24;;;;;;;3.72;0.80;;;;;;;;;;5033611;28;20095;-79
2023/06/03 09:33:50;;;;;;;2.25;0.80;;;;;;;;;;5033264;28;20048;-79
2023/06/03 09:36:17;;;;;;;4.07;0.75;;;;;;;;;;5034862;28;20033;-79
2023/06/03 09:38:50;;;;;;;1.85;0.80;;;;;;;;;;5032577;28;20094;-79
2023/06/03 09:41:19;;;;;;;3.40;0.50;;;;;;;;;;5034792;28;20061;-79
2023/06/03 09:44:05;;;;;;;3.97;0.50;;;;;;;;;;5031781;28;20025;-79
2023/06/03 09:46:31;;;;;;;2.92;0.75;;;;;;;;;;5033536;28;20037;-79
2023/06/03 09:49:10;;;;;;;3.30;0.90;;;;;;;;;;5033493;28;20097;-79
2023/06/03 09:51:45;;;;;;;1.75;0.47;;;;;;;;;;5037311;28;20113;-79
2023/06/03 09:54:18;;;;;;;2.90;0.70;;;;;;;;;;5032348;28;20026;-79
2023/06/03 09:56:45;;;;;;;3.45;0.70;;;;;;;;;;5037121;28;20411;-79
2023/06/03 09:59:14;;;;;;;6.07;1.23;;;;;;;;;;5034289;28;20087;-79
2023/06/03 10:01:40;;;;;;;3.05;0.80;;;;;;;;;;5032257;28;20064;-79
2023/06/03 10:04:05;;;;;;;7.10;1.08;;;;;;;;;;5034770;28;20093;-79
2023/06/03 10:06:30;;;;;;;2.00;0.80;;;;;;;;;;5034461;28;20060;-79
2023/06/03 10:08:56;;;;;;;2.30;0.70;;;;;;;;;;5033864;28;20033;-79
2023/06/03 10:11:23;;;;;;;2.92;0.70;;;;;;;;;;5034759;28;20033;-79
2023/06/03 10:14:00;;;;;;;2.45;0.60;;;;;;;;;;5033290;28;20045;-79
2023/06/03 10:16:25;;;;;;;3.55;1.00;;;;;;;;;;5029205;28;20029;-79
2023/06/03 10:18:52;;;;;;;4.43;0.60;;;;;;;;;;5034066;28;20392;-80
2023/06/03 10:21:18;;;;;;;2.08;0.82;;;;;;;;;;5033760;28;20492;-79
2023/06/03 10:23:44;;;;;;;2.13;0.65;;;;;;;;;;5033449;28;20042;-79
2023/06/03 10:26:10;;;;;;;2.13;0.60;;;;;;;;;;5033325;28;20057;-79
2023/06/03 10:28:35;;;;;;;4.40;0.57;;;;;;;;;;5032697;28;20029;-79
2023/06/03 10:31:02;;;;;;;2.55;0.60;;;;;;;;;;5030830;28;20025;-79
2023/06/03 10:33:28;;;;;;;2.00;0.70;;;;;;;;;;5034105;28;20041;-79
2023/06/03 10:35:56;;;;;;;3.50;1.35;;;;;;;;;;5033977;28;20026;-79
2023/06/03 10:38:21;;;;;;;4.40;0.75;;;;;;;;;;5033667;28;20488;-79
2023/06/03 10:40:46;;;;;;;3.13;0.60;;;;;;;;;;5032534;28;20041;-79
2023/06/03 10:43:12;;;;;;;2.45;0.60;;;;;;;;;;5033463;28;20579;-79
2023/06/03 10:45:37;;;;;;;2.63;0.85;;;;;;;;;;5033592;28;20099;-80
2023/06/03 10:48:07;;;;;;;3.70;0.70;;;;;;;;;;5015935;28;20458;-80
2023/06/03 10:50:56;;;;;;;2.15;0.63;;;;;;;;;;5032398;28;20272;-80
2023/06/03 10:53:40;;;;;;;2.20;0.60;;;;;;;;;;5030198;28;20491;-79
2023/06/03 10:56:22;;;;;;;4.82;1.02;;;;;;;;;;5037004;28;20124;-79
2023/06/03 10:58:57;;;;;;;1.90;0.70;;;;;;;;;;5031499;28;20496;-80
2023/06/03 11:01:23;;;;;;;4.03;0.73;;;;;;;;;;5031390;28;20057;-80
2023/06/03 11:03:59;;;;;;;2.90;0.70;;;;;;;;;;5032071;28;20056;-80
2023/06/03 11:06:25;;;;;;;1.77;0.52;;;;;;;;;;5029239;28;20034;-79
2023/06/03 11:09:12;;;;;;;2.88;0.88;;;;;;;;;;5018310;28;20053;-80
2023/06/03 11:11:41;;;;;;;1.73;0.60;;;;;;;;;;5027838;28;20080;-79
2023/06/03 11:14:50;;;;;;;2.00;0.63;;;;;;;;;;5032413;28;20391;-79
2023/06/03 11:17:15;;;;;;;0.73;0.50;;;;;;;;;;5031755;28;20045;-79
2023/06/03 11:19:44;;;;;;;2.35;0.50;;;;;;;;;;5031368;28;20021;-80
2023/06/03 11:22:10;;;;;;;1.92;0.70;;;;;;;;;;5030484;28;20026;-79
2023/06/03 11:24:38;;;;;;;2.45;0.63;;;;;;;;;;5032842;28;20117;-80
2023/06/03 11:27:09;;;;;;;2.90;0.70;;;;;;;;;;5032766;28;20741;-80
2023/06/03 11:29:46;;;;;;;0.93;0.50;;;;;;;;;;5029309;28;20373;-80
2023/06/03 11:32:17;;;;;;;2.10;0.80;;;;;;;;;;5029348;28;20272;-79
2023/06/03 11:34:43;;;;;;;2.13;0.80;;;;;;;;;;5032098;28;20590;-79
2023/06/03 11:37:08;;;;;;;2.25;0.80;;;;;;;;;;5032050;28;20035;-79
2023/06/03 11:39:52;;;;;;;4.65;1.00;;;;;;;;;;5032918;28;20026;-79
2023/06/03 11:42:17;;;;;;;2.10;0.68;;;;;;;;;;5033304;28;20037;-80
2023/06/03 11:44:43;;;;;;;1.90;0.70;;;;;;;;;;5032813;28;20112;-79
2023/06/03 11:47:08;;;;;;;1.55;0.80;;;;;;;;;;5031032;28;20737;-80
2023/06/03 11:49:34;;;;;;;1.50;0.70;;;;;;;;;;5030576;28;20052;-80
2023/06/03 11:52:00;;;;;;;2.10;0.88;;;;;;;;;;5036594;28;20507;-80
2023/06/03 11:54:26;;;;;;;2.13;0.70;;;;;;;;;;5032705;28;20037;-80
2023/06/03 11:56:51;;;;;;;1.77;0.82;;;;;;;;;;5032780;28;20035;-79
2023/06/03 11:59:30;;;;;;;3.33;0.95;;;;;;;;;;5032409;28;20038;-80
2023/06/03 12:01:59;;;;;;;2.78;1.00;;;;;;;;;;5029472;28;20120;-79
2023/06/03 12:04:24;;;;;;;3.78;1.10;;;;;;;;;;5031751;28;20037;-78
2023/06/03 12:06:49;;;;;;;1.85;0.85;;;;;;;;;;5025512;28;20044;-79
2023/06/03 12:09:16;;;;;;;4.20;1.15;;;;;;;;;;5031228;28;20399;-78
2023/06/03 12:11:43;;;;;;;1.70;0.80;;;;;;;;;;5032545;28;20506;-79
2023/06/03 12:14:08;;;;;;;3.20;0.88;;;;;;;;;;5029990;28;20585;-79
2023/06/03 12:16:34;;;;;;;3.00;1.10;;;;;;;;;;5029824;28;20041;-79
2023/06/03 12:19:01;;;;;;;3.95;1.13;;;;;;;;;;5032198;28;20509;-79
2023/06/03 12:21:26;;;;;;;2.33;1.00;;;;;;;;;;5032619;28;20087;-79
2023/06/03 12:23:51;;;;;;;3.17;1.08;;;;;;;;;;5029340;28;20562;-79
2023/06/03 12:26:17;;;;;;;2.72;0.98;;;;;;;;;;5031316;28;20128;-79
2023/06/03 12:28:42;;;;;;;2.05;0.90;;;;;;;;;;5032246;28;20024;-79
2023/06/03 12:31:11;;;;;;;3.15;0.82;;;;;;;;;;5032022;28;20582;-78
2023/06/03 12:33:43;;;;;;;3.25;1.08;;;;;;;;;;5036337;28;20580;-79
2023/06/03 12:36:09;;;;;;;2.97;1.25;;;;;;;;;;5033945;28;20044;-79
2023/06/03 12:38:52;;;;;;;3.25;1.13;;;;;;;;;;5035562;28;20514;-79
2023/06/03 12:41:18;;;;;;;2.92;1.10;;;;;;;;;;5034848;28;20029;-79
2023/06/03 12:43:45;;;;;;;3.65;0.98;;;;;;;;;;5035600;28;20112;-79
2023/06/03 12:46:14;;;;;;;2.65;0.90;;;;;;;;;;5036059;28;20022;-79
2023/06/03 12:48:39;;;;;;;2.13;1.15;;;;;;;;;;5036142;28;20080;-79
2023/06/03 12:51:20;;;;;;;3.80;1.10;;;;;;;;;;5012541;28;20030;-79
2023/06/03 12:53:45;;;;;;;4.83;1.43;;;;;;;;;;5032713;28;20267;-79
2023/06/03 12:56:12;;;;;;;2.08;1.20;;;;;;;;;;5035579;28;20030;-79
2023/06/03 12:58:37;;;;;;;2.20;1.20;;;;;;;;;;5035461;28;20025;-79
2023/06/03 13:01:03;;;;;;;2.25;0.85;;;;;;;;;;5034942;28;20124;-79
2023/06/03 13:03:28;;;;;;;2.60;1.00;;;;;;;;;;5035614;28;20397;-79
2023/06/03 13:05:53;;;;;;;1.92;1.10;;;;;;;;;;5035127;28;20029;-79
2023/06/03 13:08:20;;;;;;;4.70;1.10;;;;;;;;;;5037664;28;20033;-79
2023/06/03 13:10:45;;;;;;;4.32;1.10;;;;;;;;;;5034734;28;20032;-79
2023/06/03 13:13:11;;;;;;;3.13;0.80;;;;;;;;;;5035284;28;20025;-79
2023/06/03 13:15:36;;;;;;;2.37;1.07;;;;;;;;;;5034916;28;20026;-79
2023/06/03 13:18:01;;;;;;;7.23;1.43;;;;;;;;;;5035044;28;20737;-79
2023/06/03 13:20:26;;;;;;;3.13;1.20;;;;;;;;;;5034057;28;20679;-79
2023/06/03 13:22:52;;;;;;;5.18;1.30;;;;;;;;;;5031676;28;20288;-79
2023/06/03 13:25:17;;;;;;;3.17;1.40;;;;;;;;;;5033888;28;20025;-79
2023/06/03 13:27:42;;;;;;;5.67;1.30;;;;;;;;;;5034268;28;20557;-79
2023/06/03 13:30:08;;;;;;;3.17;1.23;;;;;;;;;;5033966;28;20075;-79
2023/06/03 13:32:34;;;;;;;3.05;1.20;;;;;;;;;;5033038;28;20384;-79
2023/06/03 13:35:00;;;;;;;2.83;1.20;;;;;;;;;;5034275;28;20044;-79
2023/06/03 13:37:25;;;;;;;2.90;1.15;;;;;;;;;;5033969;28;20108;-79
2023/06/03 13:39:50;;;;;;;2.33;1.30;;;;;;;;;;5035046;28;20108;-79
2023/06/03 13:42:16;;;;;;;1.83;1.33;;;;;;;;;;5032443;28;20094;-79
2023/06/03 13:44:41;;;;;;;2.13;1.20;;;;;;;;;;5034580;28;20268;-79
2023/06/03 13:47:07;;;;;;;2.10;1.10;;;;;;;;;;5034931;28;20139;-79
2023/06/03 13:49:33;;;;;;;4.75;1.60;;;;;;;;;;5034115;28;20056;-79
2023/06/03 13:51:58;;;;;;;3.25;1.60;;;;;;;;;;5035070;28;20055;-79
2023/06/03 13:54:23;;;;;;;3.23;1.63;;;;;;;;;;5035086;28;20091;-79
2023/06/03 13:56:53;;;;;;;2.63;1.60;;;;;;;;;;5033182;28;20646;-79
2023/06/03 13:59:22;;;;;;;2.42;1.40;;;;;;;;;;5033475;28;20255;-79
2023/06/03 14:01:47;;;;;;;3.90;1.63;;;;;;;;;;5031666;28;20112;-79
2023/06/03 14:04:14;;;;;;;4.13;1.58;;;;;;;;;;5036963;28;20437;-79
2023/06/03 14:06:39;;;;;;;3.08;1.48;;;;;;;;;;5035142;28;20387;-79
2023/06/03 14:09:05;;;;;;;2.00;1.30;;;;;;;;;;5034288;28;20033;-79
2023/06/03 14:11:30;;;;;;;2.03;1.30;;;;;;;;;;5034578;28;20037;-79
2023/06/03 14:13:55;;;;;;;4.80;1.60;;;;;;;;;;5034481;28;20652;-79
2023/06/03 14:16:26;;;;;;;3.97;1.50;;;;;;;;;;5034619;28;20280;-79
2023/06/03 14:18:51;;;;;;;;;;;;;;;;;;5033140;28;20036;-79
2023/06/03 14:21:16;;;;;;;2.60;1.40;;;;;;;;;;5033624;28;20291;-79
2023/06/03 14:23:41;;;;;;;4.03;1.90;;;;;;;;;;5034378;28;20044;-79
2023/06/03 14:26:06;;;;;;;2.60;1.43;;;;;;;;;;5029841;28;20788;-79
2023/06/03 14:28:32;;;;;;;3.10;1.50;;;;;;;;;;5034276;28;20032;-79
2023/06/03 14:30:57;;;;;;;1.73;1.43;;;;;;;;;;5031392;28;20056;-79
2023/06/03 14:33:25;;;;;;;2.20;1.60;;;;;;;;;;5034319;28;20048;-79
2023/06/03 14:35:50;;;;;;;2.47;1.77;;;;;;;;;;5034104;28;20945;-79
2023/06/03 14:38:19;;;;;;;2.65;1.80;;;;;;;;;;5031884;28;20037;-79
2023/06/03 14:40:44;;;;;;;2.00;1.70;;;;;;;;;;5036022;28;20025;-79
2023/06/03 14:43:10;;;;;;;2.70;1.80;;;;;;;;;;5034149;28;20396;-79
2023/06/03 14:45:35;;;;;;;2.53;1.90;;;;;;;;;;5034530;28;20025;-79